Time;durP1;ratioP1;P1;durP2;ratioP2;P2;SDS_P1;SDS_P2;PMS_P1;PMS_P2;Temp;Humidity;BMP_temperature;BMP_pressure;BME280_temperature;BME280_humidity;BME280_pressure;Samples;Min_cycle;Max_cycle;Signal;HPM_P1;HPM_P2
2023/10/24 00:01:58;;;;;;;31.85;20.98;;;10.10;99.90;;;;;;4955199;28;21168;-75
2023/10/24 00:04:25;;;;;;;27.75;20.40;;;10.10;99.90;;;;;;4968415;28;20097;-76
2023/10/24 00:06:50;;;;;;;32.45;22.73;;;10.10;99.90;;;;;;4953270;28;20043;-76
2023/10/24 00:09:16;;;;;;;29.77;21.92;;;10.20;99.90;;;;;;4955973;28;20065;-75
2023/10/24 00:11:42;;;;;;;39.03;24.48;;;10.10;99.90;;;;;;4947367;28;20145;-76
2023/10/24 00:14:07;;;;;;;33.90;23.20;;;10.10;99.90;;;;;;4945564;28;20138;-76
2023/10/24 00:16:33;;;;;;;37.35;24.27;;;10.10;99.90;;;;;;4970784;28;20038;-76
2023/10/24 00:18:59;;;;;;;37.88;23.33;;;10.10;99.90;;;;;;4967518;28;20038;-76
2023/10/24 00:21:24;;;;;;;37.50;24.50;;;10.10;99.90;;;;;;4940296;28;20030;-76
2023/10/24 00:23:50;;;;;;;38.10;25.40;;;10.10;99.90;;;;;;4962314;28;20035;-76
2023/10/24 00:26:15;;;;;;;34.38;24.15;;;10.10;99.90;;;;;;4946466;28;20038;-76
2023/10/24 00:28:41;;;;;;;32.08;23.38;;;10.10;99.90;;;;;;4938875;28;20465;-76
2023/10/24 00:31:07;;;;;;;34.97;23.25;;;10.10;99.90;;;;;;4966373;28;20039;-76
2023/10/24 00:33:33;;;;;;;38.42;25.25;;;10.10;99.90;;;;;;4959224;28;20515;-74
2023/10/24 00:36:02;;;;;;;33.55;24.42;;;10.10;99.90;;;;;;4968970;28;20035;-73
2023/10/24 00:38:27;;;;;;;39.88;25.27;;;10.10;99.90;;;;;;4956077;28;20043;-73
2023/10/24 00:40:53;;;;;;;38.38;24.80;;;10.10;99.90;;;;;;4969870;28;20097;-73
2023/10/24 00:43:19;;;;;;;45.55;27.95;;;10.10;99.90;;;;;;4963728;28;20067;-73
2023/10/24 00:45:45;;;;;;;46.20;27.10;;;10.10;99.90;;;;;;4952585;28;20497;-73
2023/10/24 00:48:11;;;;;;;45.10;26.98;;;10.10;99.90;;;;;;4969062;28;20039;-73
2023/10/24 00:50:36;;;;;;;45.63;27.52;;;10.10;99.90;;;;;;4970246;28;20039;-74
2023/10/24 00:53:03;;;;;;;43.83;27.45;;;10.10;99.90;;;;;;4968957;28;20136;-74
2023/10/24 00:55:30;;;;;;;44.90;28.02;;;10.10;99.90;;;;;;4959930;28;20043;-75
2023/10/24 00:57:59;;;;;;;47.05;28.00;;;10.10;99.90;;;;;;4979482;28;20039;-74
2023/10/24 01:00:26;;;;;;;41.10;26.65;;;10.10;99.90;;;;;;4953832;28;20488;-74
2023/10/24 01:02:53;;;;;;;44.47;27.08;;;10.10;99.90;;;;;;4945409;28;21081;-74
2023/10/24 01:05:19;;;;;;;48.38;27.80;;;10.20;99.90;;;;;;4969741;28;20051;-74
2023/10/24 01:07:47;;;;;;;44.03;27.65;;;10.10;99.90;;;;;;4969312;28;20035;-74
2023/10/24 01:10:13;;;;;;;52.65;29.10;;;10.10;99.90;;;;;;4936492;28;20091;-75
2023/10/24 01:12:39;;;;;;;52.58;29.98;;;10.10;99.90;;;;;;4952034;28;20086;-74
2023/10/24 01:15:06;;;;;;;55.38;30.05;;;10.10;99.90;;;;;;4968210;28;20507;-74
2023/10/24 01:17:32;;;;;;;43.20;27.05;;;10.10;99.90;;;;;;4953364;28;20653;-74
2023/10/24 01:19:58;;;;;;;45.50;27.05;;;10.10;99.90;;;;;;4953541;28;20170;-75
2023/10/24 01:22:23;;;;;;;45.85;27.85;;;10.10;99.90;;;;;;4933396;28;20043;-74
2023/10/24 01:24:50;;;;;;;47.20;27.60;;;10.10;99.90;;;;;;4936550;28;20134;-75
2023/10/24 01:27:18;;;;;;;49.00;28.45;;;10.20;99.90;;;;;;4968960;28;20043;-74
2023/10/24 01:29:44;;;;;;;48.85;28.00;;;10.20;99.90;;;;;;4966655;28;20050;-75
2023/10/24 01:32:10;;;;;;;38.08;25.20;;;10.10;99.90;;;;;;4984944;28;20038;-75
2023/10/24 01:34:35;;;;;;;44.65;28.27;;;10.20;99.90;;;;;;4956219;28;20038;-75
2023/10/24 01:37:01;;;;;;;44.72;28.10;;;10.20;99.90;;;;;;4963963;28;20097;-74
2023/10/24 01:39:27;;;;;;;46.92;28.38;;;10.20;99.90;;;;;;4965325;28;20555;-75
2023/10/24 01:41:52;;;;;;;43.55;26.95;;;10.20;99.90;;;;;;4932172;28;20045;-74
2023/10/24 01:44:18;;;;;;;43.00;25.85;;;10.20;99.90;;;;;;4961269;28;20500;-74
2023/10/24 01:46:44;;;;;;;48.38;28.70;;;10.20;99.90;;;;;;4952853;28;20495;-74
2023/10/24 01:49:09;;;;;;;57.25;29.10;;;10.20;99.90;;;;;;4967445;28;20039;-75
2023/10/24 01:51:35;;;;;;;39.38;24.90;;;10.20;99.90;;;;;;4952960;28;20046;-74
2023/10/24 01:54:01;;;;;;;49.40;27.80;;;10.20;99.90;;;;;;4946204;28;20446;-74
2023/10/24 01:56:27;;;;;;;49.60;28.90;;;10.20;99.90;;;;;;4951439;28;20162;-74
2023/10/24 01:58:52;;;;;;;53.83;30.10;;;10.20;99.90;;;;;;4963662;28;20484;-74
2023/10/24 02:01:18;;;;;;;46.17;26.33;;;10.20;99.90;;;;;;4937914;28;20531;-74
2023/10/24 02:03:44;;;;;;;42.15;25.23;;;10.20;99.90;;;;;;4956281;28;20540;-75
2023/10/24 02:06:09;;;;;;;38.97;24.05;;;10.20;99.90;;;;;;4969052;28;20378;-74
2023/10/24 02:08:35;;;;;;;57.78;30.05;;;10.30;99.90;;;;;;4936205;28;20034;-75
2023/10/24 02:11:01;;;;;;;32.95;22.92;;;10.30;99.90;;;;;;4967568;28;20263;-75
2023/10/24 02:13:26;;;;;;;31.63;21.55;;;10.30;99.90;;;;;;4936742;28;20042;-74
2023/10/24 02:15:53;;;;;;;38.17;24.50;;;10.30;99.90;;;;;;4945141;28;20514;-74
2023/10/24 02:18:19;;;;;;;40.60;25.33;;;10.30;99.90;;;;;;4968043;28;20039;-74
2023/10/24 02:20:45;;;;;;;44.97;26.77;;;10.30;99.90;;;;;;4967777;28;20047;-74
2023/10/24 02:23:10;;;;;;;38.42;24.83;;;10.30;99.90;;;;;;4967029;28;20524;-74
2023/10/24 02:25:37;;;;;;;43.55;25.48;;;10.30;99.90;;;;;;4950662;28;20407;-74
2023/10/24 02:28:02;;;;;;;43.47;25.33;;;10.30;99.90;;;;;;4951294;28;20126;-75
2023/10/24 02:30:28;;;;;;;42.80;25.67;;;10.30;99.90;;;;;;4967598;28;20117;-75
2023/10/24 02:33:00;;;;;;;48.25;28.13;;;10.40;99.90;;;;;;4968352;28;20506;-75
2023/10/24 02:35:26;;;;;;;39.85;25.38;;;10.40;99.90;;;;;;4944017;28;20042;-75
2023/10/24 02:37:52;;;;;;;45.53;27.08;;;10.40;99.90;;;;;;4951658;28;20085;-75
2023/10/24 02:40:18;;;;;;;40.45;25.85;;;10.40;99.90;;;;;;4944714;28;20070;-74
2023/10/24 02:42:43;;;;;;;46.10;25.92;;;10.40;99.90;;;;;;4936452;28;20488;-75
2023/10/24 02:45:09;;;;;;;59.17;30.75;;;10.40;99.90;;;;;;4968189;28;20043;-75
2023/10/24 02:47:35;;;;;;;52.55;29.38;;;10.40;99.90;;;;;;4951499;28;20045;-75
2023/10/24 02:50:01;;;;;;;57.38;30.90;;;10.40;99.90;;;;;;4951502;28;20133;-74
2023/10/24 02:52:29;;;;;;;46.95;29.38;;;10.40;99.90;;;;;;4953073;28;20109;-74
2023/10/24 02:54:54;;;;;;;59.67;31.90;;;10.40;99.90;;;;;;4967477;28;20053;-75
2023/10/24 02:57:20;;;;;;;51.25;30.92;;;10.40;99.90;;;;;;4965939;28;20053;-75
2023/10/24 02:59:46;;;;;;;59.10;31.50;;;10.40;99.90;;;;;;4952156;28;20114;-75
2023/10/24 03:02:13;;;;;;;57.58;32.10;;;10.40;99.90;;;;;;4951496;28;20046;-75
2023/10/24 03:04:38;;;;;;;57.22;31.20;;;10.40;99.90;;;;;;4952203;28;20090;-75
2023/10/24 03:07:04;;;;;;;55.78;30.33;;;10.40;99.90;;;;;;4966865;28;20046;-75
2023/10/24 03:09:29;;;;;;;60.45;32.50;;;10.40;99.90;;;;;;4953091;28;20038;-75
2023/10/24 03:11:55;;;;;;;54.25;31.33;;;10.40;99.90;;;;;;4949463;28;20069;-75
2023/10/24 03:14:21;;;;;;;55.22;29.77;;;10.50;99.90;;;;;;4951441;28;20489;-75
2023/10/24 03:16:48;;;;;;;53.65;30.95;;;10.50;99.90;;;;;;4953564;28;20039;-75
2023/10/24 03:19:14;;;;;;;60.33;32.85;;;10.50;99.90;;;;;;4962152;28;20503;-74
2023/10/24 03:21:40;;;;;;;60.85;32.30;;;10.50;99.90;;;;;;4963315;28;20035;-74
2023/10/24 03:24:06;;;;;;;60.92;32.63;;;10.50;99.90;;;;;;4958023;28;20210;-74
2023/10/24 03:26:32;;;;;;;45.75;28.30;;;10.50;99.90;;;;;;4954068;28;20042;-74
2023/10/24 03:28:57;;;;;;;56.15;32.78;;;10.50;99.90;;;;;;4953021;28;20159;-75
2023/10/24 03:31:23;;;;;;;56.08;32.60;;;10.50;99.90;;;;;;4962859;28;20173;-74
2023/10/24 03:33:48;;;;;;;54.88;33.13;;;10.60;99.90;;;;;;4949408;28;20129;-75
2023/10/24 03:36:14;;;;;;;49.13;31.00;;;10.60;99.90;;;;;;4967352;28;20049;-74
2023/10/24 03:38:40;;;;;;;48.53;31.45;;;10.60;99.90;;;;;;4958096;28;20054;-74
2023/10/24 03:41:09;;;;;;;45.10;30.50;;;10.60;99.90;;;;;;4939796;28;20041;-75
2023/10/24 03:43:35;;;;;;;51.83;33.70;;;10.60;99.90;;;;;;4962187;28;20086;-75
2023/10/24 03:46:10;;;;;;;52.17;34.35;;;10.70;99.90;;;;;;4967656;28;20492;-74
2023/10/24 03:48:35;;;;;;;57.47;33.72;;;10.70;99.90;;;;;;4952807;28;20042;-75
2023/10/24 03:51:01;;;;;;;61.42;36.30;;;10.70;99.90;;;;;;4955664;28;20054;-75
2023/10/24 03:53:27;;;;;;;53.55;33.20;;;10.70;99.90;;;;;;4935767;28;20063;-75
2023/10/24 03:56:00;;;;;;;67.70;37.28;;;10.70;99.90;;;;;;4965669;28;20054;-75
2023/10/24 03:58:27;;;;;;;55.22;35.65;;;10.70;99.90;;;;;;4950862;28;20511;-76
2023/10/24 04:00:53;;;;;;;68.70;40.13;;;10.70;99.90;;;;;;4959244;28;20086;-75
2023/10/24 04:03:20;;;;;;;62.95;39.17;;;10.70;99.90;;;;;;4965763;28;20084;-75
2023/10/24 04:05:46;;;;;;;71.53;40.60;;;10.70;99.90;;;;;;4950452;28;20046;-75
2023/10/24 04:08:11;;;;;;;76.47;42.15;;;10.80;99.90;;;;;;4967054;28;20039;-76
2023/10/24 04:10:37;;;;;;;83.35;44.03;;;10.80;99.90;;;;;;4937090;28;20051;-75
2023/10/24 04:13:03;;;;;;;94.20;45.13;;;10.80;99.90;;;;;;4963647;28;20043;-75
2023/10/24 04:15:29;;;;;;;59.92;37.50;;;10.80;99.90;;;;;;4965199;28;20039;-75
2023/10/24 04:17:54;;;;;;;59.08;38.00;;;10.80;99.90;;;;;;4966998;28;20566;-76
2023/10/24 04:20:20;;;;;;;58.30;36.22;;;10.90;99.90;;;;;;4942385;28;20161;-75
2023/10/24 04:22:49;;;;;;;43.67;31.58;;;10.80;99.90;;;;;;4935001;28;20070;-76
2023/10/24 04:25:15;;;;;;;40.65;26.20;;;10.80;99.90;;;;;;4952780;28;20039;-76
2023/10/24 04:27:41;;;;;;;39.28;28.30;;;10.80;99.90;;;;;;4933572;28;20046;-77
2023/10/24 04:30:07;;;;;;;44.72;28.50;;;10.90;99.90;;;;;;4967161;28;20045;-76
2023/10/24 04:32:33;;;;;;;37.83;27.30;;;10.90;99.90;;;;;;4959356;28;20129;-76
2023/10/24 04:35:00;;;;;;;35.60;23.77;;;10.80;99.90;;;;;;4967243;28;20095;-76
2023/10/24 04:37:26;;;;;;;41.13;26.75;;;10.80;99.90;;;;;;4974318;28;20532;-76
2023/10/24 04:39:51;;;;;;;42.67;27.63;;;10.80;99.90;;;;;;4950073;28;20039;-76
2023/10/24 04:42:17;;;;;;;37.00;26.77;;;10.90;99.90;;;;;;4963054;28;20063;-76
2023/10/24 04:44:43;;;;;;;51.10;28.88;;;10.90;99.90;;;;;;4956009;28;20339;-76
2023/10/24 04:47:08;;;;;;;32.45;24.35;;;10.90;99.90;;;;;;4946447;28;20045;-76
2023/10/24 04:49:38;;;;;;;33.15;24.20;;;10.60;99.90;;;;;;4953977;28;20062;-76
2023/10/24 04:52:04;;;;;;;46.42;29.38;;;11.00;99.90;;;;;;4955590;28;20451;-76
2023/10/24 04:54:30;;;;;;;46.17;29.25;;;10.90;99.90;;;;;;4971498;28;20105;-76
2023/10/24 04:56:57;;;;;;;36.70;25.75;;;10.90;99.90;;;;;;4963077;28;20127;-76
2023/10/24 04:59:22;;;;;;;34.10;24.83;;;10.90;99.90;;;;;;4951178;28;20035;-76
2023/10/24 05:01:48;;;;;;;32.80;24.38;;;10.90;99.90;;;;;;4950529;28;20046;-76
2023/10/24 05:04:14;;;;;;;41.42;26.50;;;10.90;99.90;;;;;;4977805;28;20034;-76
2023/10/24 05:06:39;;;;;;;30.77;24.30;;;10.90;99.90;;;;;;4954231;28;20053;-76
2023/10/24 05:09:06;;;;;;;33.63;25.15;;;10.90;99.90;;;;;;4954496;28;20077;-76
2023/10/24 05:11:32;;;;;;;33.28;24.40;;;10.90;99.90;;;;;;4953870;28;20101;-76
2023/10/24 05:13:57;;;;;;;42.35;25.20;;;10.90;99.90;;;;;;4969058;28;20388;-76
2023/10/24 05:16:23;;;;;;;26.58;21.70;;;10.90;99.90;;;;;;4965260;28;20042;-76
2023/10/24 05:18:49;;;;;;;38.42;25.20;;;10.90;99.90;;;;;;4953983;28;20043;-76
2023/10/24 05:21:14;;;;;;;26.95;20.42;;;10.90;99.90;;;;;;4964732;28;20097;-76
2023/10/24 05:23:40;;;;;;;29.02;20.40;;;10.90;99.90;;;;;;4953966;28;20038;-76
2023/10/24 05:26:06;;;;;;;31.08;21.00;;;10.80;99.90;;;;;;4953615;28;20043;-76
2023/10/24 05:28:34;;;;;;;26.67;20.08;;;10.80;99.90;;;;;;4968232;28;20646;-76
2023/10/24 05:31:04;;;;;;;29.77;20.58;;;10.80;99.90;;;;;;4945020;28;20039;-76
2023/10/24 05:33:30;;;;;;;28.52;20.88;;;10.80;99.90;;;;;;4969664;28;20101;-76
2023/10/24 05:35:55;;;;;;;24.95;19.30;;;10.80;99.90;;;;;;4954686;28;20051;-76
2023/10/24 05:38:21;;;;;;;28.80;20.88;;;10.80;99.90;;;;;;4944401;28;20070;-76
2023/10/24 05:40:47;;;;;;;30.08;20.90;;;10.70;99.90;;;;;;4965240;28;20043;-76
2023/10/24 05:43:12;;;;;;;27.23;20.58;;;10.70;99.90;;;;;;4937483;28;20043;-76
2023/10/24 05:45:38;;;;;;;35.38;22.27;;;10.70;99.90;;;;;;4963965;28;20454;-76
2023/10/24 05:48:04;;;;;;;37.63;22.05;;;10.70;99.90;;;;;;4956963;28;20053;-76
2023/10/24 05:50:30;;;;;;;19.20;17.00;;;10.60;99.90;;;;;;4936384;28;20035;-76
2023/10/24 05:52:56;;;;;;;33.80;22.27;;;10.70;99.90;;;;;;4956772;28;20435;-76
2023/10/24 05:55:22;;;;;;;37.50;20.98;;;10.60;99.90;;;;;;4969073;28;20047;-76
2023/10/24 05:57:47;;;;;;;28.48;19.33;;;10.60;99.90;;;;;;4969502;28;20034;-76
2023/10/24 06:00:13;;;;;;;26.33;19.08;;;10.60;99.90;;;;;;4957379;28;20078;-76
2023/10/24 06:02:39;;;;;;;26.88;19.02;;;10.60;99.90;;;;;;4952796;28;20077;-76
2023/10/24 06:05:05;;;;;;;29.17;20.65;;;10.60;99.90;;;;;;4969250;28;20692;-76
2023/10/24 06:07:31;;;;;;;27.58;19.60;;;10.60;99.90;;;;;;4937125;28;20042;-76
2023/10/24 06:09:56;;;;;;;28.08;20.63;;;10.60;99.90;;;;;;4955219;28;20042;-76
2023/10/24 06:12:22;;;;;;;26.73;20.35;;;10.60;99.90;;;;;;4937948;28;20058;-76
2023/10/24 06:14:48;;;;;;;35.38;20.08;;;10.60;99.90;;;;;;4972381;28;20047;-76
2023/10/24 06:17:17;;;;;;;30.20;19.63;;;10.70;99.90;;;;;;4950230;28;20027;-76
2023/10/24 06:19:45;;;;;;;24.65;18.75;;;10.70;99.90;;;;;;4969377;28;20049;-76
2023/10/24 06:22:11;;;;;;;25.60;18.85;;;10.70;99.90;;;;;;4976804;28;20050;-76
2023/10/24 06:24:36;;;;;;;21.58;16.92;;;10.70;99.90;;;;;;4936547;28;20153;-76
2023/10/24 06:27:02;;;;;;;26.98;18.52;;;10.70;99.90;;;;;;4965699;28;20046;-76
2023/10/24 06:29:30;;;;;;;27.50;18.30;;;10.70;99.90;;;;;;4968774;28;20149;-76
2023/10/24 06:31:57;;;;;;;30.92;19.73;;;10.70;99.90;;;;;;4968361;28;20054;-76
2023/10/24 06:34:22;;;;;;;28.05;20.02;;;10.70;99.90;;;;;;4950034;28;20106;-76
2023/10/24 06:36:48;;;;;;;26.48;18.38;;;10.70;99.90;;;;;;4969730;28;20500;-76
2023/10/24 06:39:14;;;;;;;22.20;16.52;;;10.70;99.90;;;;;;4953041;28;20057;-76
2023/10/24 06:41:40;;;;;;;24.98;17.27;;;10.70;99.90;;;;;;4950573;28;20126;-76
2023/10/24 06:44:05;;;;;;;34.90;21.02;;;10.70;99.90;;;;;;4965705;28;20046;-78
2023/10/24 06:46:31;;;;;;;19.45;15.20;;;10.70;99.90;;;;;;4936831;28;20127;-77
2023/10/24 06:48:57;;;;;;;19.23;15.15;;;10.70;99.90;;;;;;4933809;28;20129;-76
2023/10/24 06:51:24;;;;;;;16.90;14.07;;;10.70;99.90;;;;;;4954811;28;20054;-77
2023/10/24 06:53:49;;;;;;;32.90;19.88;;;10.70;99.90;;;;;;4969483;28;20055;-77
2023/10/24 06:56:15;;;;;;;28.52;18.38;;;10.70;99.90;;;;;;4961643;28;20142;-77
2023/10/24 06:58:41;;;;;;;21.65;16.10;;;10.70;99.90;;;;;;4965538;28;20463;-77
2023/10/24 07:01:06;;;;;;;27.95;17.98;;;10.70;99.90;;;;;;4953896;28;20125;-77
2023/10/24 07:03:32;;;;;;;22.17;16.08;;;10.70;99.90;;;;;;4923004;28;20122;-75
2023/10/24 07:05:58;;;;;;;17.90;15.05;;;10.80;99.90;;;;;;4939483;28;20669;-74
2023/10/24 07:08:23;;;;;;;21.05;15.73;;;10.70;99.90;;;;;;4922065;28;20904;-77
2023/10/24 07:10:49;;;;;;;17.13;14.68;;;10.70;99.90;;;;;;4938395;28;20043;-77
2023/10/24 07:13:15;;;;;;;22.02;15.82;;;10.70;99.90;;;;;;4920051;28;20058;-74
2023/10/24 07:15:41;;;;;;;19.50;15.00;;;10.70;99.90;;;;;;4937820;28;20129;-77
2023/10/24 07:18:07;;;;;;;22.83;15.68;;;10.70;99.90;;;;;;4937437;28;20543;-77
2023/10/24 07:20:37;;;;;;;18.77;14.70;;;10.70;99.90;;;;;;4952228;28;20030;-77
2023/10/24 07:23:03;;;;;;;17.85;13.70;;;10.70;99.90;;;;;;4939316;28;20070;-77
2023/10/24 07:25:30;;;;;;;15.55;13.43;;;10.70;99.90;;;;;;4922920;28;20042;-77
2023/10/24 07:27:57;;;;;;;17.40;11.55;;;10.70;99.90;;;;;;4939068;28;20122;-73
2023/10/24 07:30:24;;;;;;;16.30;14.02;;;10.70;99.90;;;;;;4955902;28;20050;-77
2023/10/24 07:32:50;;;;;;;14.07;12.57;;;10.70;99.90;;;;;;4940115;28;20105;-77
2023/10/24 07:35:15;;;;;;;16.50;11.30;;;10.70;99.90;;;;;;4954701;28;21830;-76
2023/10/24 07:37:41;;;;;;;17.92;12.57;;;10.60;99.90;;;;;;4947999;28;20043;-76
2023/10/24 07:40:07;;;;;;;11.35;10.15;;;10.60;99.90;;;;;;4941387;28;20113;-77
2023/10/24 07:42:33;;;;;;;14.93;12.15;;;10.60;99.90;;;;;;4922340;28;20073;-77
2023/10/24 07:44:59;;;;;;;16.95;13.70;;;10.60;99.90;;;;;;4954808;28;20652;-76
2023/10/24 07:47:28;;;;;;;17.95;14.20;;;10.60;99.90;;;;;;4937955;28;20077;-76
2023/10/24 07:49:55;;;;;;;18.38;14.35;;;10.60;99.90;;;;;;4935659;28;20053;-76
2023/10/24 07:52:21;;;;;;;19.30;14.63;;;10.60;99.90;;;;;;4940173;28;20504;-76
2023/10/24 07:54:46;;;;;;;16.80;14.23;;;10.60;99.90;;;;;;4950109;28;20054;-77
2023/10/24 07:57:12;;;;;;;18.67;14.45;;;10.60;99.90;;;;;;4938783;28;20639;-77
2023/10/24 07:59:38;;;;;;;24.40;16.55;;;10.60;99.90;;;;;;4922944;28;20047;-77
2023/10/24 08:02:04;;;;;;;18.00;14.93;;;10.60;99.90;;;;;;4937598;28;20519;-77
2023/10/24 08:04:30;;;;;;;18.67;15.32;;;10.70;99.90;;;;;;4939258;28;20039;-77
2023/10/24 08:06:56;;;;;;;17.73;14.82;;;10.70;99.90;;;;;;4938536;28;21112;-77
2023/10/24 08:09:21;;;;;;;19.23;15.88;;;10.70;99.90;;;;;;4921461;28;20212;-77
2023/10/24 08:11:47;;;;;;;25.27;17.65;;;10.70;99.90;;;;;;4937802;28;20716;-77
2023/10/24 08:14:13;;;;;;;19.30;14.38;;;10.70;99.90;;;;;;4935338;28;20046;-77
2023/10/24 08:16:39;;;;;;;21.63;15.35;;;10.70;99.90;;;;;;4954395;28;20042;-77
2023/10/24 08:19:05;;;;;;;18.00;14.45;;;10.70;99.90;;;;;;4939310;28;20125;-76
2023/10/24 08:21:30;;;;;;;19.92;14.82;;;10.70;99.90;;;;;;4942968;28;20177;-77
2023/10/24 08:23:56;;;;;;;16.63;14.20;;;10.70;99.90;;;;;;4951484;28;20053;-77
2023/10/24 08:26:22;;;;;;;14.80;12.63;;;10.70;99.90;;;;;;4956945;28;20073;-77
2023/10/24 08:28:48;;;;;;;16.85;14.10;;;10.70;99.90;;;;;;4941357;28;20141;-76
2023/10/24 08:31:14;;;;;;;22.80;15.85;;;10.70;99.90;;;;;;4942293;28;20047;-78
2023/10/24 08:33:39;;;;;;;20.83;15.15;;;10.70;99.90;;;;;;4943460;28;20046;-77
2023/10/24 08:36:05;;;;;;;20.33;15.95;;;10.70;99.90;;;;;;4943454;28;20094;-77
2023/10/24 08:38:31;;;;;;;23.38;16.35;;;10.70;99.90;;;;;;4943348;28;20567;-77
2023/10/24 08:40:56;;;;;;;19.10;15.52;;;10.70;99.90;;;;;;4940570;28;20035;-77
2023/10/24 08:43:23;;;;;;;20.65;15.15;;;10.70;99.90;;;;;;4955310;28;20039;-77
2023/10/24 08:45:52;;;;;;;20.50;16.10;;;10.80;99.90;;;;;;4955550;28;20054;-77
2023/10/24 08:48:18;;;;;;;21.67;15.70;;;10.70;99.90;;;;;;4942436;28;20344;-76
2023/10/24 08:50:44;;;;;;;22.30;16.38;;;10.80;99.90;;;;;;4942603;28;20053;-78
2023/10/24 08:53:13;;;;;;;21.80;17.17;;;10.80;99.90;;;;;;4941788;28;20154;-78
2023/10/24 08:55:49;;;;;;;21.70;16.70;;;10.80;99.90;;;;;;4956363;28;20055;-78
2023/10/24 08:58:16;;;;;;;19.45;15.63;;;10.80;99.90;;;;;;4927654;28;20055;-78
2023/10/24 09:00:43;;;;;;;17.83;14.90;;;10.80;99.90;;;;;;4941024;28;20035;-77
2023/10/24 09:03:10;;;;;;;18.70;14.00;;;10.80;99.90;;;;;;4958137;28;20125;-78
2023/10/24 09:05:38;;;;;;;20.90;16.73;;;10.80;99.90;;;;;;4941364;28;20377;-77
2023/10/24 09:08:05;;;;;;;15.10;13.50;;;10.80;99.90;;;;;;4950645;28;20042;-77
2023/10/24 09:10:31;;;;;;;16.45;13.90;;;10.80;99.90;;;;;;4958186;28;20516;-77
2023/10/24 09:12:57;;;;;;;17.05;14.43;;;10.90;99.90;;;;;;4942502;28;20102;-77
2023/10/24 09:15:23;;;;;;;18.85;15.15;;;10.70;99.90;;;;;;4942995;28;20049;-77
2023/10/24 09:17:49;;;;;;;13.55;12.05;;;10.80;99.90;;;;;;4941973;28;20193;-77
2023/10/24 09:20:18;;;;;;;12.43;11.13;;;10.80;99.90;;;;;;4953085;28;20424;-76
2023/10/24 09:22:44;;;;;;;12.90;10.60;;;10.80;99.90;;;;;;4954976;28;20043;-76
2023/10/24 09:25:09;;;;;;;14.75;10.98;;;10.80;99.90;;;;;;4926618;28;20156;-77
2023/10/24 09:27:35;;;;;;;12.27;10.77;;;10.90;99.90;;;;;;4941017;28;20046;-77
2023/10/24 09:30:12;;;;;;;12.57;11.25;;;10.80;99.90;;;;;;4940378;28;20425;-77
2023/10/24 09:32:44;;;;;;;13.85;11.05;;;10.90;99.90;;;;;;4940842;28;20411;-77
2023/10/24 09:35:09;;;;;;;14.20;10.70;;;10.90;99.90;;;;;;4940708;28;20097;-77
2023/10/24 09:37:43;;;;;;;12.68;10.25;;;10.90;99.90;;;;;;4925412;28;20039;-77
2023/10/24 09:40:09;;;;;;;10.18;9.18;;;11.00;99.90;;;;;;4941124;28;20093;-74
2023/10/24 09:42:37;;;;;;;10.65;9.48;;;11.00;99.90;;;;;;4939171;28;20043;-75
2023/10/24 09:45:07;;;;;;;12.25;10.95;;;10.90;99.90;;;;;;4956703;28;20043;-75
2023/10/24 09:47:33;;;;;;;11.52;10.27;;;11.00;99.90;;;;;;4925246;28;20112;-75
2023/10/24 09:49:59;;;;;;;12.57;10.10;;;11.00;99.90;;;;;;4940734;28;20097;-75
2023/10/24 09:52:27;;;;;;;11.82;10.10;;;10.90;99.90;;;;;;4940750;28;20050;-76
2023/10/24 09:54:53;;;;;;;9.82;8.82;;;10.90;99.90;;;;;;4952428;28;20065;-76
2023/10/24 09:57:21;;;;;;;10.23;9.18;;;10.90;99.90;;;;;;4938253;28;20031;-76
2023/10/24 09:59:47;;;;;;;9.57;8.55;;;10.90;99.90;;;;;;4951844;28;20054;-75
2023/10/24 10:02:16;;;;;;;9.50;8.50;;;10.90;99.90;;;;;;4940429;28;20037;-76
2023/10/24 10:04:42;;;;;;;12.55;10.05;;;10.90;99.90;;;;;;4935728;28;20097;-76
2023/10/24 10:07:11;;;;;;;10.50;9.45;;;10.90;99.90;;;;;;4924288;28;20252;-76
2023/10/24 10:09:42;;;;;;;9.82;8.68;;;10.90;99.90;;;;;;4953721;28;20101;-76
2023/10/24 10:12:12;;;;;;;11.07;9.65;;;10.90;99.90;;;;;;4940115;28;20488;-77
2023/10/24 10:14:42;;;;;;;11.90;9.85;;;10.90;99.90;;;;;;4937602;28;20460;-77
2023/10/24 10:18:03;;;;;;;9.65;8.65;;;10.90;99.90;;;;;;4956127;28;20065;-77
2023/10/24 10:20:31;;;;;;;10.38;9.15;;;10.90;99.90;;;;;;4922978;28;20050;-77
2023/10/24 10:23:08;;;;;;;11.25;9.63;;;10.90;99.90;;;;;;4951785;28;20319;-77
2023/10/24 10:25:49;;;;;;;9.98;8.85;;;10.90;99.90;;;;;;4940388;28;20054;-77
2023/10/24 10:28:56;;;;;;;10.98;8.50;;;10.90;99.90;;;;;;4953307;28;20050;-77
2023/10/24 10:31:45;;;;;;;9.05;8.15;;;10.90;99.90;;;;;;4960160;28;20518;-77
2023/10/24 10:34:11;;;;;;;9.10;8.15;;;10.90;99.90;;;;;;4977173;28;20050;-77
2023/10/24 10:36:53;;;;;;;10.40;9.20;;;11.00;99.90;;;;;;4962123;28;20061;-77
2023/10/24 10:39:19;;;;;;;16.20;10.30;;;11.00;99.90;;;;;;4940330;28;20598;-77
2023/10/24 10:41:59;;;;;;;11.88;9.77;;;11.00;99.90;;;;;;4943279;28;20468;-77
2023/10/24 10:44:38;;;;;;;10.40;8.90;;;11.00;99.90;;;;;;4955998;28;20055;-76
2023/10/24 10:47:05;;;;;;;11.38;9.73;;;11.00;99.90;;;;;;4954820;28;20125;-77
2023/10/24 10:49:41;;;;;;;11.48;10.27;;;11.00;99.90;;;;;;4955634;28;20051;-77
2023/10/24 10:52:29;;;;;;;11.93;10.57;;;11.00;99.90;;;;;;4939570;28;20182;-75
2023/10/24 10:55:39;;;;;;;12.43;10.73;;;11.00;99.90;;;;;;4948530;28;20397;-75
2023/10/24 10:58:23;;;;;;;13.23;10.65;;;11.10;99.90;;;;;;4955174;28;20369;-75
2023/10/24 11:01:24;;;;;;;12.15;10.90;;;11.10;99.90;;;;;;4939817;28;20095;-75
2023/10/24 11:03:49;;;;;;;12.43;11.13;;;11.10;99.90;;;;;;4960159;28;20077;-75
2023/10/24 11:06:19;;;;;;;11.73;10.23;;;11.20;99.90;;;;;;4954474;28;20559;-75
2023/10/24 11:09:06;;;;;;;14.45;10.90;;;11.30;99.90;;;;;;4939172;28;20050;-76
2023/10/24 11:11:33;;;;;;;11.00;9.90;;;11.40;99.90;;;;;;4938971;28;20059;-75
2023/10/24 11:14:19;;;;;;;12.27;11.02;;;11.40;99.90;;;;;;4955472;28;20298;-76
2023/10/24 11:16:48;;;;;;;11.63;10.52;;;11.50;99.90;;;;;;4939261;28;20050;-75
2023/10/24 11:19:24;;;;;;;12.65;11.35;;;11.60;99.90;;;;;;4954774;28;20261;-76
2023/10/24 11:21:52;;;;;;;14.25;11.98;;;11.70;99.90;;;;;;4939762;28;20078;-76
2023/10/24 11:24:20;;;;;;;12.73;11.43;;;11.80;99.90;;;;;;4955665;28;20045;-76
2023/10/24 11:26:56;;;;;;;14.25;11.82;;;11.80;99.90;;;;;;4951458;28;20134;-76
2023/10/24 11:29:22;;;;;;;12.60;11.30;;;11.90;99.90;;;;;;4939083;28;20043;-76
2023/10/24 11:31:48;;;;;;;13.95;12.20;;;11.80;99.90;;;;;;4937586;28;20045;-76
2023/10/24 11:34:18;;;;;;;14.70;12.52;;;11.90;99.90;;;;;;4955285;28;20404;-77
2023/10/24 11:36:45;;;;;;;13.43;12.00;;;11.90;99.90;;;;;;4942415;28;20082;-76
2023/10/24 11:39:14;;;;;;;14.55;12.15;;;12.00;99.90;;;;;;4939778;28;20035;-76
2023/10/24 11:41:44;;;;;;;13.40;12.02;;;12.10;99.90;;;;;;4938080;28;20101;-77
2023/10/24 11:44:11;;;;;;;13.13;11.35;;;12.10;99.90;;;;;;4941954;28;20051;-76
2023/10/24 11:46:41;;;;;;;13.13;11.75;;;12.10;99.90;;;;;;4953839;28;20047;-76
2023/10/24 11:49:07;;;;;;;15.98;11.85;;;12.20;99.90;;;;;;4942994;28;20051;-76
2023/10/24 11:51:33;;;;;;;15.07;12.60;;;12.30;99.90;;;;;;4938653;28;20038;-76
2023/10/24 11:54:08;;;;;;;11.32;10.23;;;12.20;99.90;;;;;;4941927;28;20462;-76
2023/10/24 11:56:34;;;;;;;13.73;11.80;;;12.20;99.90;;;;;;4959849;28;20452;-76
2023/10/24 11:59:02;;;;;;;17.48;13.23;;;12.20;99.90;;;;;;4942827;28;20515;-76
2023/10/24 12:01:28;;;;;;;12.85;11.55;;;12.10;99.90;;;;;;4927220;28;20118;-76
2023/10/24 12:03:59;;;;;;;13.32;11.93;;;12.10;99.90;;;;;;4955958;28;20594;-76
2023/10/24 12:06:26;;;;;;;16.23;12.75;;;12.10;99.90;;;;;;4942370;28;20053;-76
2023/10/24 12:08:53;;;;;;;16.48;13.35;;;12.10;99.90;;;;;;4971918;28;20054;-76
2023/10/24 12:11:19;;;;;;;13.98;12.57;;;12.10;99.90;;;;;;4940614;28;20054;-76
2023/10/24 12:13:46;;;;;;;13.75;12.20;;;12.10;99.90;;;;;;4972498;28;20058;-76
2023/10/24 12:16:12;;;;;;;15.15;12.63;;;12.10;99.90;;;;;;4940539;28;20046;-76
2023/10/24 12:18:38;;;;;;;12.98;11.43;;;12.20;99.90;;;;;;4955692;28;20114;-76
2023/10/24 12:21:05;;;;;;;13.05;11.75;;;12.30;99.90;;;;;;4940235;28;20403;-76
2023/10/24 12:23:31;;;;;;;12.93;11.50;;;12.30;99.90;;;;;;4957619;28;20050;-76
2023/10/24 12:25:56;;;;;;;12.73;11.27;;;12.40;99.90;;;;;;4940989;28;20089;-76
2023/10/24 12:28:22;;;;;;;14.90;11.60;;;12.30;99.90;;;;;;4941234;28;20039;-77
2023/10/24 12:30:48;;;;;;;12.15;10.95;;;12.40;99.90;;;;;;4926286;28;20039;-77